Time;durP1;ratioP1;P1;durP2;ratioP2;P2;SDS_P1;SDS_P2;PMS_P1;PMS_P2;Temp;Humidity;BMP_temperature;BMP_pressure;BME280_temperature;BME280_humidity;BME280_pressure;Samples;Min_cycle;Max_cycle;Signal;HPM_P1;HPM_P2
2023/03/06 00:00:45;;;;;;;3.63;1.77;;;;;;;-0.42;100.00;99813.41;5036376;28;20049;-81
2023/03/06 00:03:11;;;;;;;5.87;2.43;;;;;;;-0.26;100.00;99814.44;5037685;28;20041;-82
2023/03/06 00:05:38;;;;;;;5.53;2.00;;;;;;;-0.18;100.00;99807.59;5036711;28;20102;-82
2023/03/06 00:08:08;;;;;;;4.53;1.70;;;;;;;-0.37;100.00;99810.03;5036535;28;20045;-82
2023/03/06 00:10:37;;;;;;;5.17;2.10;;;;;;;-0.41;100.00;99797.91;5042039;28;20060;-81
2023/03/06 00:13:07;;;;;;;2.20;1.57;;;;;;;-0.41;100.00;99803.09;5066379;28;20040;-83
2023/03/06 00:15:36;;;;;;;3.47;2.20;;;;;;;-0.40;100.00;99798.75;5042921;28;20494;-82
2023/03/06 00:18:04;;;;;;;5.03;2.10;;;;;;;-0.44;100.00;99795.25;5028873;28;20115;-82
2023/03/06 00:20:31;;;;;;;3.57;2.00;;;;;;;-0.35;100.00;99784.97;5036784;28;20068;-82
2023/03/06 00:22:58;;;;;;;2.80;1.83;;;;;;;-0.44;100.00;99784.88;5051493;28;20035;-82
2023/03/06 00:25:28;;;;;;;4.23;2.40;;;;;;;-0.49;100.00;99783.97;5019883;28;20040;-82
2023/03/06 00:27:54;;;;;;;3.70;2.70;;;;;;;-0.43;100.00;99783.13;5066794;28;20071;-82
2023/03/06 00:30:23;;;;;;;3.83;2.20;;;;;;;-0.41;100.00;99776.28;5041111;28;20061;-82
2023/03/06 00:32:51;;;;;;;3.27;2.20;;;;;;;-0.45;100.00;99777.94;5036102;28;20037;-81
2023/03/06 00:35:18;;;;;;;3.93;2.00;;;;;;;-0.36;100.00;99778.03;5033487;28;20088;-82
2023/03/06 00:37:44;;;;;;;4.87;2.27;;;;;;;-0.41;100.00;99781.47;5044586;28;20071;-81
2023/03/06 00:40:14;;;;;;;5.80;2.87;;;;;;;-0.41;100.00;99771.06;5053286;28;20430;-81
2023/03/06 00:42:40;;;;;;;7.10;2.63;;;;;;;-0.40;100.00;99778.00;5011377;28;20125;-81
2023/03/06 00:45:08;;;;;;;6.53;2.60;;;;;;;-0.36;100.00;99778.03;5058604;28;20482;-81
2023/03/06 00:47:35;;;;;;;3.47;2.23;;;;;;;-0.28;100.00;99771.19;5033292;28;20124;-82
2023/03/06 00:50:02;;;;;;;4.20;2.20;;;;;;;-0.46;100.00;99768.44;5030998;28;20041;-81
2023/03/06 00:52:35;;;;;;;2.90;1.90;;;;;;;-0.47;100.00;99773.59;5036403;28;20077;-81
2023/03/06 00:55:05;;;;;;;5.53;2.70;;;;;;;-0.36;100.00;99759.88;5024990;28;20494;-80
2023/03/06 00:57:34;;;;;;;4.33;2.33;;;;;;;-0.42;100.00;99753.75;5082269;28;20037;-80
2023/03/06 01:00:02;;;;;;;3.97;2.53;;;;;;;-0.36;100.00;99756.41;5050781;28;20046;-80
2023/03/06 01:02:29;;;;;;;4.10;2.23;;;;;;;-0.35;100.00;99747.75;5065516;28;20100;-80
2023/03/06 01:04:56;;;;;;;4.53;2.53;;;;;;;-0.45;100.00;99744.22;5019681;28;20051;-80
2023/03/06 01:07:27;;;;;;;5.27;2.50;;;;;;;-0.46;100.00;99742.47;5050192;28;20045;-80
2023/03/06 01:09:54;;;;;;;6.60;3.30;;;;;;;-0.47;100.00;99739.88;5078518;28;20773;-81
2023/03/06 01:12:20;;;;;;;5.07;2.87;;;;;;;-0.39;100.00;99744.28;5052917;28;20071;-80
2023/03/06 01:14:49;;;;;;;5.93;2.60;;;;;;;-0.35;100.00;99742.56;5051806;28;20029;-80
2023/03/06 01:17:16;;;;;;;3.23;2.47;;;;;;;-0.42;100.00;99735.56;5047498;28;20472;-80
2023/03/06 01:19:46;;;;;;;3.90;2.40;;;;;;;-0.34;100.00;99731.31;5152369;22;20036;-83
2023/03/06 01:22:17;;;;;;;2.95;2.28;;;;;;;-0.40;100.00;99731.28;5024231;28;20048;-83
2023/03/06 01:24:43;;;;;;;3.20;2.10;;;;;;;-0.42;100.00;99717.41;5050268;28;20048;-83
2023/03/06 01:27:10;;;;;;;4.47;2.20;;;;;;;-0.44;100.00;99714.81;5075094;28;20047;-83
2023/03/06 01:29:37;;;;;;;4.90;3.00;;;;;;;-0.36;100.00;99709.69;5057137;28;20060;-82
2023/03/06 01:32:04;;;;;;;7.33;2.87;;;;;;;-0.41;100.00;99721.78;5039739;28;20393;-80
2023/03/06 01:34:30;;;;;;;5.17;2.57;;;;;;;-0.31;100.00;99713.22;5040536;28;20043;-81
2023/03/06 01:36:57;;;;;;;4.73;2.57;;;;;;;-0.38;100.00;99703.63;5011123;28;20044;-82
2023/03/06 01:39:24;;;;;;;4.90;3.00;;;;;;;-0.42;100.00;99704.44;5014084;28;20048;-80
2023/03/06 01:41:50;;;;;;;3.53;2.30;;;;;;;-0.45;100.00;99702.69;5083304;28;20448;-80
2023/03/06 01:44:17;;;;;;;4.80;2.43;;;;;;;-0.43;100.00;99700.13;5025535;28;20378;-83
2023/03/06 01:46:44;;;;;;;3.77;2.40;;;;;;;-0.42;100.00;99697.56;5018360;28;20049;-82
2023/03/06 01:49:18;;;;;;;5.13;2.80;;;;;;;-0.41;100.00;99698.41;5037519;28;20037;-83
2023/03/06 01:51:51;;;;;;;3.65;2.50;;;;;;;-0.40;100.00;99684.59;5020984;28;20090;-83
2023/03/06 01:54:22;;;;;;;3.47;2.47;;;;;;;-0.47;100.00;99685.38;5046905;28;20033;-82
2023/03/06 01:56:51;;;;;;;4.97;2.10;;;;;;;-0.50;100.00;99683.66;5042256;28;20072;-81
2023/03/06 01:59:19;;;;;;;3.90;2.60;;;;;;;-0.40;100.00;99675.06;5038913;28;20044;-82
2023/03/06 02:01:47;;;;;;;3.97;2.40;;;;;;;-0.46;100.00;99674.16;5028926;28;20036;-82
2023/03/06 02:04:13;;;;;;;4.03;2.57;;;;;;;-0.63;100.00;99664.50;5023655;28;20107;-80
2023/03/06 02:06:43;;;;;;;2.90;2.37;;;;;;;-0.55;100.00;99668.88;5047230;28;20091;-82
2023/03/06 02:09:11;;;;;;;3.40;2.60;;;;;;;-0.55;100.00;99658.50;5016592;28;20048;-82
2023/03/06 02:11:42;;;;;;;3.50;2.40;;;;;;;-0.46;100.00;99664.63;5018095;28;20063;-83
2023/03/06 02:14:14;;;;;;;3.77;2.53;;;;;;;-0.49;100.00;99659.44;5022581;28;20044;-82
2023/03/06 02:16:42;;;;;;;4.43;2.70;;;;;;;-0.52;100.00;99655.94;5024841;28;20041;-80
2023/03/06 02:19:41;;;;;;;5.00;2.93;;;;;;;-0.44;100.00;99647.34;5014034;28;20041;-83
2023/03/06 02:22:08;;;;;;;3.70;2.93;;;;;;;-0.54;100.00;99653.34;5006839;28;20061;-83
2023/03/06 02:24:46;;;;;;;4.10;2.70;;;;;;;-0.53;100.00;99644.69;5033697;28;20068;-82
2023/03/06 02:27:14;;;;;;;5.43;2.63;;;;;;;-0.49;100.00;99640.41;5032307;28;20032;-82
2023/03/06 02:29:42;;;;;;;6.40;3.03;;;;;;;-0.46;100.00;99643.00;5024034;28;20053;-82
2023/03/06 02:32:09;;;;;;;4.23;2.70;;;;;;;-0.46;100.00;99632.63;5040738;28;20048;-82
2023/03/06 02:34:35;;;;;;;5.33;2.67;;;;;;;-0.39;100.00;99632.69;5037221;28;20731;-82
2023/03/06 02:37:11;;;;;;;5.53;2.60;;;;;;;-0.42;100.00;99624.00;5027272;28;20033;-83
2023/03/06 02:39:41;;;;;;;8.20;2.80;;;;;;;-0.36;100.00;99631.84;5024993;28;20041;-82
2023/03/06 02:42:07;;;;;;;10.53;3.33;;;;;;;-0.44;100.00;99628.31;5039448;28;20037;-82
2023/03/06 02:44:34;;;;;;;5.40;3.10;;;;;;;-0.46;100.00;99630.03;5023100;28;20402;-82
2023/03/06 02:47:01;;;;;;;3.97;2.80;;;;;;;-0.43;100.00;99627.47;5016364;28;20045;-80
2023/03/06 02:49:28;;;;;;;4.80;2.70;;;;;;;-0.34;100.00;99622.34;5043539;28;20110;-82
2023/03/06 02:51:54;;;;;;;5.10;2.60;;;;;;;-0.41;100.00;99623.16;5044142;28;20044;-83
2023/03/06 02:54:21;;;;;;;4.13;2.70;;;;;;;-0.51;100.00;99624.81;5034792;28;20036;-82
2023/03/06 02:56:48;;;;;;;4.97;3.10;;;;;;;-0.48;100.00;99621.38;5044204;28;20089;-80
2023/03/06 02:59:14;;;;;;;4.17;2.77;;;;;;;-0.59;100.00;99624.78;5063810;28;20044;-82
2023/03/06 03:01:41;;;;;;;4.93;2.70;;;;;;;-0.52;100.00;99609.22;5041534;28;20044;-80
2023/03/06 03:04:09;;;;;;;4.70;2.60;;;;;;;-0.50;100.00;99610.13;5063003;28;20040;-80
2023/03/06 03:06:35;;;;;;;4.63;3.07;;;;;;;-0.54;100.00;99611.81;5039055;28;20047;-80
2023/03/06 03:09:02;;;;;;;4.90;2.83;;;;;;;-0.59;100.00;99603.13;5027191;28;20063;-80
2023/03/06 03:11:29;;;;;;;4.53;2.77;;;;;;;-0.53;100.00;99615.28;5021058;28;20044;-82
2023/03/06 03:13:55;;;;;;;4.60;2.80;;;;;;;-0.50;100.00;99615.31;5035872;28;20033;-80
2023/03/06 03:16:22;;;;;;;7.80;3.03;;;;;;;-0.43;100.00;99606.69;5013611;28;20044;-80
2023/03/06 03:18:50;;;;;;;4.97;3.47;;;;;;;-0.50;100.00;99613.59;5034676;28;20036;-82
2023/03/06 03:21:17;;;;;;;4.67;3.40;;;;;;;-0.54;100.00;99613.56;5049357;28;20044;-81
2023/03/06 03:23:43;;;;;;;4.63;2.60;;;;;;;-0.57;100.00;99617.88;5057474;28;20036;-80
2023/03/06 03:26:13;;;;;;;5.20;3.00;;;;;;;-0.58;100.00;99608.34;5044162;28;20428;-80
2023/03/06 03:28:40;;;;;;;5.10;3.03;;;;;;;-0.57;100.00;99604.03;5033017;28;20048;-79
2023/03/06 03:31:08;;;;;;;4.20;2.67;;;;;;;-0.55;100.00;99609.22;5037009;28;20075;-80
2023/03/06 03:33:36;;;;;;;4.77;3.10;;;;;;;-0.52;100.00;99601.44;5060005;28;20032;-79
2023/03/06 03:36:04;;;;;;;5.27;2.83;;;;;;;-0.54;100.00;99606.63;5039602;28;20041;-80
2023/03/06 03:38:31;;;;;;;14.03;3.63;;;;;;;-0.51;100.00;99605.78;5025171;28;20077;-80
2023/03/06 03:41:00;;;;;;;4.80;3.03;;;;;;;-0.52;100.00;99610.09;5043909;28;20060;-81
2023/03/06 03:43:26;;;;;;;4.97;2.80;;;;;;;-0.57;100.00;99602.31;5023231;28;20039;-80
2023/03/06 03:45:53;;;;;;;5.47;3.23;;;;;;;-0.53;100.00;99604.91;5067668;28;20793;-80
2023/03/06 03:48:20;;;;;;;6.07;3.60;;;;;;;-0.55;100.00;99609.22;5023150;28;20036;-81
2023/03/06 03:50:47;;;;;;;5.60;3.77;;;;;;;-0.54;100.00;99601.44;5052126;28;20124;-81
2023/03/06 03:53:13;;;;;;;5.43;3.17;;;;;;;-0.50;100.00;99607.53;5017991;28;20061;-81
2023/03/06 03:55:40;;;;;;;3.90;2.50;;;;;;;-0.55;100.00;99607.50;5057074;28;20033;-81
2023/03/06 03:58:07;;;;;;;5.27;3.87;;;;;;;-0.55;100.00;99611.81;5020157;28;20051;-81
2023/03/06 04:00:36;;;;;;;4.30;3.13;;;;;;;-0.52;100.00;99604.03;5030893;28;20056;-81
2023/03/06 04:03:03;;;;;;;4.33;2.80;;;;;;;-0.49;100.00;99602.34;5042804;28;20049;-81
2023/03/06 04:05:32;;;;;;;4.43;2.70;;;;;;;-0.60;100.00;99604.84;5037704;28;20036;-81
2023/03/06 04:08:01;;;;;;;4.60;2.73;;;;;;;-0.52;100.00;99602.31;5045164;28;20040;-81
2023/03/06 04:10:28;;;;;;;3.83;2.77;;;;;;;-0.53;100.00;99604.91;5032237;28;20044;-81
2023/03/06 04:12:55;;;;;;;4.30;3.23;;;;;;;-0.54;100.00;99597.97;5022934;28;20065;-81
2023/03/06 04:15:22;;;;;;;5.03;2.70;;;;;;;-0.47;100.00;99591.97;5070559;28;20131;-81
2023/03/06 04:17:52;;;;;;;3.13;2.30;;;;;;;-0.49;100.00;99599.75;5035221;28;20052;-80
2023/03/06 04:20:19;;;;;;;4.20;2.30;;;;;;;-0.52;100.00;99598.84;5028156;28;20033;-80
2023/03/06 04:22:45;;;;;;;4.23;2.70;;;;;;;-0.53;100.00;99592.81;5052283;28;20044;-81
2023/03/06 04:25:12;;;;;;;4.90;2.47;;;;;;;-0.46;100.00;99588.53;5031049;28;20036;-81
2023/03/06 04:27:39;;;;;;;3.83;2.50;;;;;;;-0.47;100.00;99591.97;5030933;28;20094;-81
2023/03/06 04:30:06;;;;;;;4.50;2.63;;;;;;;-0.52;100.00;99588.47;5020948;28;20512;-81
2023/03/06 04:32:33;;;;;;;3.10;1.63;;;;;;;-0.53;100.00;99587.63;5020861;28;20097;-80
2023/03/06 04:35:01;;;;;;;3.67;2.27;;;;;;;-0.49;100.00;99584.19;5021084;28;20071;-80
2023/03/06 04:37:27;;;;;;;2.83;2.27;;;;;;;-0.55;100.00;99589.34;5057155;28;20040;-80
2023/03/06 04:39:54;;;;;;;3.07;2.10;;;;;;;-0.52;100.00;99585.88;5036515;28;20099;-80
2023/03/06 04:42:20;;;;;;;3.73;2.07;;;;;;;-0.55;100.00;99578.09;5042407;28;20095;-81
2023/03/06 04:44:47;;;;;;;2.90;1.90;;;;;;;-0.60;100.00;99583.22;5018365;28;20607;-80
2023/03/06 04:47:14;;;;;;;5.07;2.33;;;;;;;-0.59;100.00;99585.88;5040900;28;20047;-80
2023/03/06 04:49:44;;;;;;;4.37;2.43;;;;;;;-0.51;100.00;99583.28;5053792;28;20054;-80
2023/03/06 04:52:10;;;;;;;3.67;2.20;;;;;;;-0.59;100.00;99585.88;5026821;28;20498;-80
2023/03/06 04:54:40;;;;;;;3.80;2.23;;;;;;;-0.57;100.00;99584.16;5014373;28;20041;-80
2023/03/06 04:57:06;;;;;;;3.93;2.00;;;;;;;-0.59;100.00;99592.75;5032138;28;20041;-80
2023/03/06 04:59:33;;;;;;;2.50;1.70;;;;;;;-0.61;100.00;99590.16;5037467;28;20037;-80
2023/03/06 05:02:00;;;;;;;6.13;2.47;;;;;;;-0.61;100.00;99600.53;5018618;28;20045;-81
2023/03/06 05:04:26;;;;;;;2.23;1.50;;;;;;;-0.45;100.00;99592.84;5020028;28;20028;-81
2023/03/06 05:06:53;;;;;;;3.00;2.27;;;;;;;-0.15;100.00;99593.06;5031588;28;20040;-81
2023/03/06 05:09:20;;;;;;;4.40;1.90;;;;;;;-0.48;100.00;99593.72;5034111;28;20405;-80
2023/03/06 05:11:46;;;;;;;2.07;1.80;;;;;;;-0.55;100.00;99594.53;5025499;28;20040;-80
2023/03/06 05:14:13;;;;;;;3.20;1.97;;;;;;;-0.53;100.00;99599.72;5048753;28;21777;-80
2023/03/06 05:16:40;;;;;;;2.60;1.63;;;;;;;-0.64;100.00;99595.31;5026165;28;20285;-81
2023/03/06 05:19:07;;;;;;;4.60;1.97;;;;;;;-0.69;100.00;99593.53;5039779;28;20083;-81
2023/03/06 05:21:36;;;;;;;3.27;1.83;;;;;;;-0.69;100.00;99588.34;5036296;28;20044;-81
2023/03/06 05:24:03;;;;;;;4.40;2.87;;;;;;;-0.71;100.00;99587.47;5015964;28;20056;-80
2023/03/06 05:26:30;;;;;;;3.20;1.90;;;;;;;-0.76;100.00;99587.44;5006882;28;20041;-81
2023/03/06 05:28:58;;;;;;;2.47;1.77;;;;;;;-0.59;100.00;99591.06;5024517;28;20058;-81
2023/03/06 05:31:24;;;;;;;2.60;1.83;;;;;;;-0.64;100.00;99590.13;5035982;28;20109;-81
2023/03/06 05:33:51;;;;;;;2.77;2.07;;;;;;;-0.68;100.00;99590.09;5043715;28;20041;-81
2023/03/06 05:36:18;;;;;;;2.87;2.60;;;;;;;-0.66;100.00;99588.41;5021268;28;20455;-81
2023/03/06 05:38:44;;;;;;;3.40;2.03;;;;;;;-0.47;100.00;99594.59;5015767;28;20308;-81
2023/03/06 05:41:14;;;;;;;3.67;1.70;;;;;;;-0.61;100.00;99597.94;5057009;28;20032;-81
2023/03/06 05:43:41;;;;;;;2.53;1.53;;;;;;;-0.62;100.00;99597.94;5031496;28;20052;-81
2023/03/06 05:46:09;;;;;;;2.70;1.63;;;;;;;-0.61;100.00;99604.84;5032710;28;20044;-81
2023/03/06 05:48:36;;;;;;;2.93;2.07;;;;;;;-0.61;100.00;99597.94;5040088;28;20040;-80
2023/03/06 05:51:04;;;;;;;4.90;2.00;;;;;;;-0.64;100.00;99599.66;5032700;28;20051;-80
2023/03/06 05:53:31;;;;;;;3.37;1.70;;;;;;;-0.58;100.00;99591.91;5053749;28;20076;-80
2023/03/06 05:56:00;;;;;;;2.83;1.83;;;;;;;-0.62;100.00;99596.19;5053764;28;20068;-80
2023/03/06 05:58:27;;;;;;;3.17;1.77;;;;;;;-0.67;100.00;99597.91;5047396;28;20051;-80
2023/03/06 06:00:54;;;;;;;3.07;1.90;;;;;;;-0.63;100.00;99606.56;5031694;28;20131;-80
2023/03/06 06:03:21;;;;;;;3.53;2.33;;;;;;;-0.61;100.00;99604.84;5036883;28;20074;-81
2023/03/06 06:05:49;;;;;;;3.70;1.73;;;;;;;-0.67;100.00;99603.09;5017389;28;20412;-80
2023/03/06 06:08:15;;;;;;;3.17;1.77;;;;;;;-0.65;100.00;99609.16;5066554;28;20055;-81
2023/03/06 06:10:42;;;;;;;3.23;2.60;;;;;;;-0.62;100.00;99603.97;5000894;28;20039;-81
2023/03/06 06:13:09;;;;;;;3.67;2.43;;;;;;;-0.59;100.00;99601.44;5032604;28;20036;-81
2023/03/06 06:15:37;;;;;;;3.70;2.13;;;;;;;-0.52;100.00;99606.63;5033665;28;20072;-81
2023/03/06 06:18:04;;;;;;;4.93;3.20;;;;;;;-0.53;100.00;99604.91;5031239;28;20044;-80
2023/03/06 06:20:30;;;;;;;5.67;3.43;;;;;;;-0.52;100.00;99601.44;5017403;28;20149;-80
2023/03/06 06:22:57;;;;;;;6.50;3.70;;;;;;;-0.52;100.00;99604.03;5051382;28;20135;-81
2023/03/06 06:25:24;;;;;;;5.00;3.33;;;;;;;-0.40;100.00;99591.19;5024265;28;20130;-81
2023/03/06 06:27:54;;;;;;;4.70;3.00;;;;;;;-0.36;100.00;99603.28;5010419;28;20043;-81
2023/03/06 06:30:21;;;;;;;3.83;2.87;;;;;;;-0.35;100.00;99605.03;5030101;28;20576;-81
2023/03/06 06:32:47;;;;;;;3.57;2.67;;;;;;;-0.24;100.00;99595.59;5032207;28;20404;-80
2023/03/06 06:35:14;;;;;;;4.30;3.20;;;;;;;-0.24;100.00;99602.53;5011783;28;20033;-80
2023/03/06 06:37:41;;;;;;;4.47;3.00;;;;;;;-0.27;100.00;99600.75;5016086;28;20038;-81
2023/03/06 06:40:08;;;;;;;3.53;2.40;;;;;;;-0.25;100.00;99606.84;5026964;28;20481;-81
2023/03/06 06:42:35;;;;;;;4.37;3.10;;;;;;;-0.24;100.00;99602.53;5040947;28;20563;-81
2023/03/06 06:45:09;;;;;;;4.73;2.97;;;;;;;-0.16;100.00;99598.25;5032497;28;20511;-81
2023/03/06 06:47:39;;;;;;;3.13;2.63;;;;;;;-0.15;100.00;99594.78;5042249;28;20040;-81
2023/03/06 06:50:11;;;;;;;4.13;2.80;;;;;;;-0.10;100.00;99601.72;5029164;28;20052;-80
2023/03/06 06:52:38;;;;;;;5.07;3.10;;;;;;;-0.01;100.00;99609.56;5042718;28;20062;-80
2023/03/06 06:55:05;;;;;;;3.63;2.60;;;;;;;0.08;100.00;99605.25;5017445;28;20043;-80
2023/03/06 06:57:32;;;;;;;4.10;2.63;;;;;;;0.07;100.00;99600.94;5000148;28;20052;-80
2023/03/06 06:59:58;;;;;;;4.07;2.77;;;;;;;0.05;100.00;99611.31;5030272;28;20174;-80
2023/03/06 07:02:25;;;;;;;3.57;2.40;;;;;;;0.20;100.00;99613.13;5016595;28;20048;-81
2023/03/06 07:04:53;;;;;;;4.73;3.67;;;;;;;0.40;100.00;99608.00;5032852;28;20541;-80
2023/03/06 07:07:35;;;;;;;7.53;3.33;;;;;;;0.44;100.00;99608.03;5037326;28;20529;-81
2023/03/06 07:10:11;;;;;;;4.63;3.17;;;;;;;0.38;100.00;99599.34;5053038;28;20110;-81
2023/03/06 07:12:38;;;;;;;5.93;3.47;;;;;;;0.39;100.00;99609.75;5035670;28;20037;-81
2023/03/06 07:15:05;;;;;;;5.27;2.90;;;;;;;0.41;100.00;99610.59;5010783;28;20044;-81
2023/03/06 07:17:32;;;;;;;4.60;2.73;;;;;;;0.46;100.00;99608.03;5000020;28;20049;-81
2023/03/06 07:22:47;;;;;;;4.80;3.10;;;;;;;0.63;100.00;99601.16;5088555;28;20101;-81
2023/03/06 07:25:20;;;;;;;4.30;2.77;;;;;;;0.65;100.00;99599.41;5062905;28;20036;-82
2023/03/06 07:27:46;;;;;;;4.67;3.03;;;;;;;0.67;100.00;99602.88;5054249;28;20081;-81
2023/03/06 07:30:22;;;;;;;4.90;3.30;;;;;;;0.70;100.00;99604.66;5061066;28;20458;-81
2023/03/06 07:32:54;;;;;;;4.30;3.20;;;;;;;0.82;100.00;99602.91;5081313;28;20040;-80
2023/03/06 07:35:21;;;;;;;4.17;2.60;;;;;;;0.89;100.00;99609.00;5080732;28;20119;-82
2023/03/06 07:37:48;;;;;;;5.77;2.53;;;;;;;0.81;100.00;99606.38;5081149;28;20040;-81
2023/03/06 07:40:14;;;;;;;4.03;2.83;;;;;;;0.92;100.00;99615.94;5048429;28;20046;-82
2023/03/06 07:42:41;;;;;;;4.40;2.47;;;;;;;1.03;100.00;99615.09;5046031;28;20044;-80
2023/03/06 07:45:08;;;;;;;4.57;2.53;;;;;;;1.07;100.00;99608.16;5044293;28;20040;-81
2023/03/06 07:47:35;;;;;;;3.93;2.73;;;;;;;1.22;100.00;99610.78;5039465;28;20049;-82
2023/03/06 07:50:06;;;;;;;4.40;2.60;;;;;;;1.22;100.00;99612.50;5055975;28;20044;-79
2023/03/06 07:52:33;;;;;;;3.20;2.20;;;;;;;1.28;100.00;99609.91;5037362;28;20071;-81
2023/03/06 07:55:00;;;;;;;3.23;2.13;;;;;;;1.29;100.00;99609.91;5073593;28;20047;-82
2023/03/06 07:57:26;;;;;;;4.80;3.50;;;;;;;1.37;100.00;99610.78;5066880;28;20037;-80
2023/03/06 07:59:53;;;;;;;4.10;2.80;;;;;;;1.44;100.00;99609.06;5055238;28;20067;-80
2023/03/06 08:02:19;;;;;;;4.70;3.07;;;;;;;1.54;100.00;99610.78;5055266;28;20093;-82
2023/03/06 08:04:53;;;;;;;5.13;3.33;;;;;;;1.63;100.00;99609.91;5052315;28;20036;-78
2023/03/06 08:07:21;;;;;;;5.80;3.28;;;;;;;1.81;100.00;99604.66;5058242;28;20109;-80
2023/03/06 08:09:48;;;;;;;5.87;3.50;;;;;;;2.00;100.00;99605.47;5079726;28;20078;-82
2023/03/06 08:12:15;;;;;;;4.17;2.67;;;;;;;1.76;100.00;99611.59;5062415;28;20044;-79
2023/03/06 08:14:42;;;;;;;6.17;3.70;;;;;;;1.73;100.00;99611.59;5043977;28;20188;-83
2023/03/06 08:17:08;;;;;;;4.67;2.70;;;;;;;1.56;100.00;99611.63;5021581;28;20448;-80
2023/03/06 08:19:35;;;;;;;2.87;1.97;;;;;;;1.62;100.00;99615.97;5023670;28;20098;-79
2023/03/06 08:22:04;;;;;;;3.80;2.90;;;;;;;1.74;100.00;99615.94;5025431;28;20044;-83
2023/03/06 08:24:32;;;;;;;4.67;3.47;;;;;;;1.84;100.00;99619.38;5044122;28;20044;-81
2023/03/06 08:26:59;;;;;;;4.87;3.50;;;;;;;1.97;100.00;99616.78;5060595;28;20413;-81
2023/03/06 08:29:26;;;;;;;4.97;3.63;;;;;;;2.04;100.00;99608.94;5028006;28;20052;-79
2023/03/06 08:31:52;;;;;;;5.80;3.70;;;;;;;2.17;100.00;99618.44;5044456;28;20048;-81
2023/03/06 08:34:23;;;;;;;3.83;2.63;;;;;;;2.17;100.00;99610.63;5068785;28;20036;-80
2023/03/06 08:36:50;;;;;;;4.77;2.50;;;;;;;2.30;100.00;99616.69;5062903;28;20405;-81
2023/03/06 08:39:17;;;;;;;3.50;2.70;;;;;;;2.31;100.00;99621.88;5041864;28;20040;-82
2023/03/06 08:41:44;;;;;;;4.23;2.27;;;;;;;2.44;100.00;99617.50;5033427;28;20041;-81
2023/03/06 08:44:11;;;;;;;7.10;2.30;;;;;;;2.54;100.00;99620.03;5062315;28;20033;-82
2023/03/06 08:46:37;;;;;;;3.73;1.83;;;;;;;2.62;100.00;99621.75;5023688;28;20060;-81
2023/03/06 08:49:04;;;;;;;1.80;1.60;;;;;;;2.51;100.00;99619.16;5043077;28;20131;-81
2023/03/06 08:51:31;;;;;;;2.97;2.00;;;;;;;2.67;100.00;99618.22;5043690;28;20048;-82
2023/03/06 08:53:58;;;;;;;3.27;1.77;;;;;;;2.62;100.00;99624.34;5048443;28;20482;-81
2023/03/06 08:56:27;;;;;;;3.90;2.03;;;;;;;2.78;100.00;99621.66;5029111;28;20390;-82
2023/03/06 08:58:55;;;;;;;6.07;2.80;;;;;;;2.91;100.00;99624.19;5042721;28;20062;-79
2023/03/06 09:01:25;;;;;;;7.00;3.63;;;;;;;2.92;100.00;99620.69;5041956;28;20048;-81
2023/03/06 09:03:57;;;;;;;6.37;3.90;;;;;;;3.05;100.00;99624.97;5025132;28;20460;-80
2023/03/06 09:06:25;;;;;;;3.87;2.37;;;;;;;3.09;99.52;99624.06;5057532;28;20485;-81
2023/03/06 09:08:53;;;;;;;3.97;2.43;;;;;;;3.09;98.88;99627.53;5043649;28;20131;-79
2023/03/06 09:11:21;;;;;;;4.20;2.77;;;;;;;3.21;100.00;99625.75;5058905;28;20039;-82
2023/03/06 09:13:48;;;;;;;4.57;2.67;;;;;;;3.31;98.84;99633.47;5058425;28;20032;-82
2023/03/06 09:16:14;;;;;;;4.00;2.40;;;;;;;3.38;99.41;99631.69;5057609;28;20032;-83
2023/03/06 09:18:41;;;;;;;3.20;2.23;;;;;;;3.46;98.49;99634.25;5043157;28;20048;-80
2023/03/06 09:21:08;;;;;;;4.00;2.20;;;;;;;3.57;96.99;99625.44;5047115;28;20417;-80
2023/03/06 09:23:38;;;;;;;6.03;2.10;;;;;;;3.67;96.68;99634.03;5033236;28;20035;-79
2023/03/06 09:26:06;;;;;;;3.77;2.20;;;;;;;4.04;93.95;99631.97;5078722;28;20036;-80
2023/03/06 09:28:37;;;;;;;5.40;2.60;;;;;;;4.24;91.18;99635.22;5093992;28;20043;-82
2023/03/06 09:31:12;;;;;;;3.37;2.00;;;;;;;4.22;91.39;99630.88;5040900;28;20417;-80
2023/03/06 09:33:39;;;;;;;3.03;1.90;;;;;;;4.21;84.67;99635.25;5045299;28;20044;-82
2023/03/06 09:36:07;;;;;;;2.87;1.80;;;;;;;3.88;87.90;99633.84;5054555;28;20130;-82
2023/03/06 09:38:33;;;;;;;3.13;1.70;;;;;;;3.88;88.05;99628.63;5061731;28;20040;-80
2023/03/06 09:41:21;;;;;;;2.90;2.17;;;;;;;3.78;89.68;99633.94;5042611;28;20040;-81
2023/03/06 09:43:51;;;;;;;3.97;1.60;;;;;;;3.47;91.87;99634.22;5058443;28;20048;-81
2023/03/06 09:46:31;;;;;;;2.63;1.90;;;;;;;3.51;85.28;99632.44;5030211;28;20440;-79
2023/03/06 09:49:16;;;;;;;3.00;1.37;;;;;;;3.79;88.36;99626.13;5015334;28;20450;-80
2023/03/06 09:52:01;;;;;;;2.50;1.53;;;;;;;4.00;87.06;99629.38;5052909;28;20682;-81
2023/03/06 09:54:45;;;;;;;3.93;1.83;;;;;;;4.12;89.71;99639.69;5059070;28;20062;-79
2023/03/06 09:57:23;;;;;;;2.07;1.40;;;;;;;3.95;85.87;99630.31;5047343;28;20045;-80
2023/03/06 09:59:54;;;;;;;2.83;1.60;;;;;;;4.09;89.00;99624.91;5037205;28;20056;-78
2023/03/06 10:02:36;;;;;;;2.30;1.77;;;;;;;4.35;86.26;99634.22;5017876;28;20079;-78
2023/03/06 10:05:08;;;;;;;3.00;1.80;;;;;;;4.44;87.53;99632.34;5055640;28;20041;-80
2023/03/06 10:07:40;;;;;;;4.90;2.07;;;;;;;4.23;83.44;99625.63;5043804;28;20036;-80
2023/03/06 10:10:16;;;;;;;3.53;1.60;;;;;;;4.38;86.41;99616.75;5022063;28;20044;-79
2023/03/06 10:12:47;;;;;;;2.67;1.60;;;;;;;4.35;87.58;99623.75;5057221;28;20047;-79
2023/03/06 10:15:17;;;;;;;3.43;1.67;;;;;;;4.32;84.43;99623.81;5048221;28;20043;-80
2023/03/06 10:17:44;;;;;;;1.97;1.33;;;;;;;4.35;80.56;99626.38;5029012;28;20041;-81
2023/03/06 10:20:17;;;;;;;3.23;1.57;;;;;;;4.36;83.69;99623.72;5025381;28;20040;-79
2023/03/06 10:22:58;;;;;;;2.93;1.90;;;;;;;4.15;84.72;99624.84;5071520;28;20043;-79
2023/03/06 10:25:53;;;;;;;2.63;1.60;;;;;;;4.18;85.70;99622.19;5075299;28;20555;-79
2023/03/06 10:28:32;;;;;;;3.07;1.60;;;;;;;4.15;84.34;99621.38;5036661;28;20036;-80
2023/03/06 10:31:09;;;;;;;2.93;1.50;;;;;;;4.40;84.49;99621.97;5054708;28;20419;-79
2023/03/06 10:33:54;;;;;;;2.40;1.60;;;;;;;4.03;85.56;99624.09;5049099;28;20036;-78
2023/03/06 10:36:22;;;;;;;;;;;;;;;4.14;84.53;99623.13;5037080;28;20123;-79
2023/03/06 10:38:48;;;;;;;3.50;1.60;;;;;;;4.21;87.90;99626.53;5041841;28;19921;-80
2023/03/06 10:41:21;;;;;;;2.63;1.70;;;;;;;4.26;85.42;99629.09;5039931;28;20044;-81
2023/03/06 10:44:03;;;;;;;5.90;2.97;;;;;;;4.08;83.43;99632.78;5009226;28;20041;-80
2023/03/06 10:46:38;;;;;;;5.73;2.30;;;;;;;4.13;85.93;99634.47;5036103;28;20044;-79
2023/03/06 10:49:22;;;;;;;3.70;2.10;;;;;;;4.12;88.20;99631.84;5057337;28;20036;-81
2023/03/06 10:52:00;;;;;;;2.53;1.80;;;;;;;4.20;86.35;99635.25;5035643;28;20609;-80
2023/03/06 10:54:29;;;;;;;4.20;1.90;;;;;;;4.15;82.67;99632.69;5025315;28;20451;-80
2023/03/06 10:56:56;;;;;;;4.63;2.17;;;;;;;4.11;84.26;99630.13;5066659;28;20081;-80
2023/03/06 10:59:29;;;;;;;5.47;2.50;;;;;;;4.15;85.00;99632.69;5041205;28;20637;-81
2023/03/06 11:01:57;;;;;;;4.07;2.37;;;;;;;4.15;87.15;99637.06;5045269;28;20394;-81
2023/03/06 11:04:33;;;;;;;4.23;2.80;;;;;;;4.04;83.64;99634.56;5046911;28;20037;-81
2023/03/06 11:07:23;;;;;;;6.70;3.33;;;;;;;4.05;85.33;99631.06;5029266;28;20086;-80
2023/03/06 11:09:56;;;;;;;5.10;3.23;;;;;;;4.27;84.30;99630.81;5022028;28;20044;-80
2023/03/06 11:12:37;;;;;;;5.97;3.07;;;;;;;4.29;82.26;99634.28;5045206;28;20040;-80
2023/03/06 11:15:13;;;;;;;3.77;2.53;;;;;;;4.42;85.23;99622.81;5048532;28;20063;-80
2023/03/06 11:18:00;;;;;;;6.00;2.87;;;;;;;4.57;84.85;99629.59;5042887;28;20040;-81
2023/03/06 11:20:28;;;;;;;4.07;2.47;;;;;;;4.43;83.44;99625.41;5051599;28;20444;-80
2023/03/06 11:23:18;;;;;;;6.43;3.17;;;;;;;4.27;83.56;99620.38;5042748;28;20127;-81
2023/03/06 11:26:18;;;;;;;11.80;6.60;;;;;;;4.23;84.92;99627.38;5039650;28;20041;-82
2023/03/06 11:29:05;;;;;;;16.17;13.03;;;;;;;4.02;84.46;99619.75;5045265;28;20095;-81
2023/03/06 11:31:35;;;;;;;6.60;3.27;;;;;;;4.08;85.11;99615.34;5043691;28;20074;-82
2023/03/06 11:34:11;;;;;;;4.80;3.20;;;;;;;3.95;87.32;99626.78;5040621;28;20114;-81
2023/03/06 11:36:39;;;;;;;6.07;4.10;;;;;;;3.95;87.22;99619.84;5048930;28;20043;-81
2023/03/06 11:39:17;;;;;;;6.80;3.53;;;;;;;3.99;87.17;99619.81;5026914;28;20155;-81
2023/03/06 11:42:00;;;;;;;9.03;6.60;;;;;;;3.94;87.92;99620.72;5032435;28;20105;-80